createdAt,value
2022-11-22T00:01:28.431Z,18.48
2022-11-22T00:03:57.111Z,18.70
2022-11-22T00:06:26.531Z,16.30
2022-11-22T00:08:57.026Z,19.33
2022-11-22T00:11:25.243Z,19.85
2022-11-22T00:13:54.814Z,18.63
2022-11-22T00:16:23.845Z,18.38
2022-11-22T00:18:52.580Z,20.30
2022-11-22T00:21:20.960Z,18.60
2022-11-22T00:23:50.843Z,18.38
2022-11-22T00:26:19.334Z,19.30
2022-11-22T00:28:47.885Z,21.45
2022-11-22T00:31:19.777Z,20.38
2022-11-22T00:33:47.789Z,20.63
2022-11-22T00:36:17.478Z,20.40
2022-11-22T00:38:45.786Z,21.85
2022-11-22T00:41:15.441Z,19.98
2022-11-22T00:43:43.882Z,21.00
2022-11-22T00:46:12.487Z,21.15
2022-11-22T00:48:40.887Z,22.25
2022-11-22T00:51:12.208Z,21.30
2022-11-22T00:53:40.997Z,24.33
2022-11-22T00:56:09.168Z,21.48
2022-11-22T00:58:38.777Z,21.02
2022-11-22T01:01:06.853Z,22.88
2022-11-22T01:03:35.846Z,22.13
2022-11-22T01:06:05.296Z,23.15
2022-11-22T01:08:33.615Z,23.70
2022-11-22T01:11:03.369Z,21.15
2022-11-22T01:13:31.675Z,22.35
2022-11-22T01:16:02.444Z,20.23
2022-11-22T01:18:30.621Z,21.77
2022-11-22T01:20:58.911Z,23.10
2022-11-22T01:23:30.797Z,24.40
2022-11-22T01:25:59.451Z,22.77
2022-11-22T01:28:29.022Z,21.95
2022-11-22T01:30:58.268Z,22.48
2022-11-22T01:33:27.597Z,23.83
2022-11-22T01:35:56.803Z,23.85
2022-11-22T01:38:26.405Z,25.33
2022-11-22T01:40:55.927Z,24.10
2022-11-22T01:43:26.214Z,24.02
2022-11-22T01:45:56.893Z,23.88
2022-11-22T01:48:39.823Z,25.92
2022-11-22T01:53:37.829Z,22.25
2022-11-22T01:56:07.525Z,23.02
2022-11-22T01:58:37.344Z,23.13
2022-11-22T02:01:06.814Z,24.58
2022-11-22T02:03:37.971Z,22.55
2022-11-22T02:06:06.633Z,21.87
2022-11-22T02:08:39.033Z,22.50
2022-11-22T02:11:08.348Z,26.02
2022-11-22T02:13:40.560Z,24.88
2022-11-22T02:16:10.983Z,23.88
2022-11-22T02:18:40.931Z,25.88
2022-11-22T02:21:09.741Z,24.83
2022-11-22T02:23:46.742Z,23.90
2022-11-22T02:26:16.178Z,23.73
2022-11-22T02:28:44.223Z,24.77
2022-11-22T02:31:38.715Z,24.10
2022-11-22T02:34:07.771Z,25.65
2022-11-22T02:36:41.098Z,23.80
2022-11-22T02:39:09.990Z,26.13
2022-11-22T02:41:39.848Z,22.70
2022-11-22T02:44:08.803Z,22.80
2022-11-22T02:46:37.836Z,22.95
2022-11-22T02:49:06.294Z,25.63
2022-11-22T02:51:34.278Z,25.45
2022-11-22T02:54:02.299Z,26.48
2022-11-22T02:56:30.221Z,24.92
2022-11-22T02:58:59.729Z,25.88
2022-11-22T03:01:28.030Z,24.02
2022-11-22T03:03:56.169Z,24.58
2022-11-22T03:06:24.437Z,26.38
2022-11-22T03:08:56.612Z,26.15
2022-11-22T03:11:25.269Z,22.80
2022-11-22T03:13:53.309Z,25.50
2022-11-22T03:16:22.663Z,27.00
2022-11-22T03:18:50.788Z,25.88
2022-11-22T03:21:20.247Z,26.95
2022-11-22T03:23:50.690Z,25.38
2022-11-22T03:26:18.626Z,26.90
2022-11-22T03:28:47.152Z,26.98
2022-11-22T03:31:15.125Z,23.20
2022-11-22T03:33:45.705Z,22.73
2022-11-22T03:36:14.021Z,25.02
2022-11-22T03:38:42.012Z,24.13
2022-11-22T03:41:09.962Z,27.58
2022-11-22T03:43:38.998Z,26.30
2022-11-22T03:46:07.023Z,26.15
2022-11-22T03:48:35.014Z,25.73
2022-11-22T03:51:08.047Z,25.67
2022-11-22T03:53:37.536Z,26.45
2022-11-22T03:56:05.974Z,25.70
2022-11-22T03:58:34.503Z,26.05
2022-11-22T04:01:02.813Z,23.95
2022-11-22T04:03:31.355Z,27.20
2022-11-22T04:05:59.426Z,25.70
2022-11-22T04:08:29.083Z,22.17
2022-11-22T04:10:57.053Z,26.83
2022-11-22T04:13:47.236Z,26.40
2022-11-22T04:16:17.079Z,27.13
2022-11-22T04:18:45.073Z,26.90
2022-11-22T04:21:31.159Z,26.00
2022-11-22T04:24:18.842Z,24.17
2022-11-22T04:26:47.301Z,27.63
2022-11-22T04:29:15.720Z,21.40
2022-11-22T04:32:01.614Z,25.77
2022-11-22T04:34:30.194Z,25.73
2022-11-22T04:37:00.699Z,25.33
2022-11-22T04:39:34.670Z,28.38
2022-11-22T04:42:20.684Z,23.75
2022-11-22T04:44:50.319Z,25.65
2022-11-22T04:47:34.333Z,25.30
2022-11-22T04:50:04.547Z,29.23
2022-11-22T04:52:49.858Z,24.38
2022-11-22T04:55:19.128Z,25.05
2022-11-22T04:57:47.311Z,28.92
2022-11-22T05:00:17.022Z,27.17
2022-11-22T05:02:44.986Z,25.55
2022-11-22T05:05:13.098Z,29.63
2022-11-22T05:07:42.380Z,28.08
2022-11-22T05:10:11.965Z,28.30
2022-11-22T05:12:43.679Z,28.45
2022-11-22T05:15:13.880Z,29.20
2022-11-22T05:17:41.926Z,29.63
2022-11-22T05:20:12.144Z,29.15
2022-11-22T05:22:57.581Z,32.50
2022-11-22T05:25:26.099Z,30.50
2022-11-22T05:27:56.128Z,30.98
2022-11-22T05:30:24.232Z,26.02
2022-11-22T05:32:52.751Z,29.33
2022-11-22T05:35:21.024Z,33.00
2022-11-22T05:37:49.545Z,34.80
2022-11-22T05:40:19.082Z,28.73
2022-11-22T05:42:47.155Z,31.50
2022-11-22T05:45:17.174Z,31.00
2022-11-22T05:47:46.576Z,31.55
2022-11-22T05:50:15.242Z,30.30
2022-11-22T05:52:44.303Z,34.30
2022-11-22T05:55:12.478Z,32.22
2022-11-22T05:57:43.500Z,30.92
2022-11-22T06:00:12.377Z,30.95
2022-11-22T06:02:41.958Z,28.52
2022-11-22T06:05:10.235Z,33.08
2022-11-22T06:07:38.608Z,29.55
2022-11-22T06:10:07.272Z,33.35
2022-11-22T06:12:35.780Z,33.03
2022-11-22T06:15:04.222Z,32.60
2022-11-22T06:17:32.937Z,31.75
2022-11-22T06:20:06.097Z,30.77
2022-11-22T06:22:35.096Z,35.05
2022-11-22T06:25:03.438Z,33.08
2022-11-22T06:27:31.737Z,33.50
2022-11-22T06:30:00.642Z,36.35
2022-11-22T06:32:29.359Z,33.72
2022-11-22T06:34:57.465Z,36.20
2022-11-22T06:37:29.237Z,35.40
2022-11-22T06:39:57.170Z,27.45
2022-11-22T06:42:25.375Z,33.25
2022-11-22T06:44:53.402Z,36.53
2022-11-22T06:47:21.635Z,36.50
2022-11-22T06:49:50.712Z,35.88
2022-11-22T06:52:18.888Z,35.78
2022-11-22T06:54:48.710Z,37.35
2022-11-22T06:57:16.984Z,35.58
2022-11-22T06:59:45.788Z,37.83
2022-11-22T07:02:14.366Z,31.95
2022-11-22T07:04:56.318Z,36.97
2022-11-22T07:07:30.660Z,35.63
2022-11-22T07:10:00.297Z,27.98
2022-11-22T07:12:28.314Z,35.63
2022-11-22T07:14:56.332Z,35.17
2022-11-22T07:17:25.058Z,35.95
2022-11-22T07:19:53.045Z,33.97
2022-11-22T07:22:21.731Z,38.83
2022-11-22T07:24:49.927Z,34.40
2022-11-22T07:27:19.637Z,35.90
2022-11-22T07:29:48.331Z,33.28
2022-11-22T07:32:19.724Z,33.78
2022-11-22T07:34:47.998Z,34.50
2022-11-22T07:37:15.977Z,32.95
2022-11-22T07:39:44.181Z,35.50
2022-11-22T07:42:13.078Z,31.75
2022-11-22T07:44:42.414Z,31.05
2022-11-22T07:47:12.201Z,33.60
2022-11-22T07:49:40.780Z,30.63
2022-11-22T07:52:08.738Z,32.25
2022-11-22T07:54:37.264Z,32.88
2022-11-22T07:57:05.234Z,37.05
2022-11-22T07:59:33.215Z,33.88
2022-11-22T08:02:04.212Z,31.35
2022-11-22T08:04:32.653Z,33.80
2022-11-22T08:07:03.463Z,31.02
2022-11-22T08:09:31.638Z,31.30
2022-11-22T08:11:59.917Z,31.88
2022-11-22T08:14:32.465Z,29.60
2022-11-22T08:17:01.146Z,33.30
2022-11-22T08:19:32.033Z,30.15
2022-11-22T08:22:00.746Z,33.40
2022-11-22T08:24:29.069Z,29.73
2022-11-22T08:26:57.352Z,30.70
2022-11-22T08:29:26.000Z,30.95
2022-11-22T08:31:56.845Z,28.95
2022-11-22T08:34:25.106Z,30.50
2022-11-22T08:36:57.072Z,29.42
2022-11-22T08:39:25.098Z,31.10
2022-11-22T08:41:54.001Z,28.67
2022-11-22T08:44:22.070Z,32.15
2022-11-22T08:46:54.938Z,31.80
2022-11-22T08:49:22.962Z,30.42
2022-11-22T08:51:57.369Z,32.10
2022-11-22T08:54:26.632Z,31.98
2022-11-22T08:56:54.764Z,32.33
2022-11-22T08:59:23.288Z,30.50
2022-11-22T09:01:51.337Z,31.38
2022-11-22T09:04:20.056Z,25.92
2022-11-22T09:09:39.239Z,31.00
2022-11-22T09:12:08.368Z,28.65
2022-11-22T09:14:36.383Z,29.60
2022-11-22T09:17:07.030Z,30.02
2022-11-22T09:19:35.468Z,25.98
2022-11-22T09:22:03.423Z,29.15
2022-11-22T09:24:31.451Z,27.98
2022-11-22T09:27:00.726Z,26.25
2022-11-22T09:29:29.439Z,28.77
2022-11-22T09:31:58.042Z,26.95
2022-11-22T09:34:26.002Z,29.25
2022-11-22T09:36:54.193Z,26.23
2022-11-22T09:39:22.549Z,28.45
2022-11-22T09:42:11.662Z,22.95
2022-11-22T09:44:51.272Z,26.38
2022-11-22T09:47:26.325Z,28.42
2022-11-22T09:49:59.381Z,25.92
2022-11-22T09:52:32.721Z,29.25
2022-11-22T09:55:03.594Z,26.40
2022-11-22T09:57:36.078Z,22.75
2022-11-22T10:00:07.653Z,23.70
2022-11-22T10:02:58.714Z,27.02
2022-11-22T10:05:30.984Z,25.77
2022-11-22T10:08:04.981Z,26.52
2022-11-22T10:10:36.657Z,29.38
2022-11-22T10:13:11.207Z,25.20
2022-11-22T10:15:45.859Z,30.35
2022-11-22T10:18:19.437Z,25.80
2022-11-22T10:20:49.560Z,28.45
2022-11-22T10:23:22.709Z,29.13
2022-11-22T10:26:00.098Z,29.25
2022-11-22T10:28:35.640Z,29.67
2022-11-22T10:31:09.706Z,27.52
2022-11-22T10:33:44.335Z,29.10
2022-11-22T10:36:24.645Z,29.90
2022-11-22T10:39:12.871Z,29.30
2022-11-22T10:41:48.389Z,28.80
2022-11-22T10:44:26.410Z,29.00
2022-11-22T10:47:00.514Z,30.58
2022-11-22T10:49:40.614Z,30.63
2022-11-22T10:52:17.587Z,30.02
2022-11-22T10:54:51.804Z,28.88
2022-11-22T10:57:31.944Z,29.55
2022-11-22T11:00:20.498Z,28.88
2022-11-22T11:03:20.070Z,30.23
2022-11-22T11:09:23.254Z,29.33
2022-11-22T11:11:31.397Z,30.35
2022-11-22T11:14:01.898Z,29.80
2022-11-22T11:16:33.511Z,27.98
2022-11-22T11:19:09.898Z,29.90
2022-11-22T11:21:39.797Z,31.00
2022-11-22T11:24:18.037Z,31.00
2022-11-22T11:26:55.323Z,28.05
2022-11-22T11:29:37.943Z,30.48
2022-11-22T11:32:13.382Z,29.90
2022-11-22T11:34:44.002Z,28.58
2022-11-22T11:37:23.615Z,31.27
2022-11-22T11:39:51.789Z,29.15
2022-11-22T11:42:28.968Z,30.35
2022-11-22T11:45:23.568Z,29.10
2022-11-22T11:47:52.983Z,29.40
2022-11-22T11:50:24.512Z,29.67
2022-11-22T11:52:56.229Z,29.05
2022-11-22T11:55:24.461Z,30.17
2022-11-22T11:57:53.746Z,30.80
2022-11-22T12:00:28.142Z,29.10
2022-11-22T12:03:07.314Z,29.95
2022-11-22T12:05:35.701Z,30.42
2022-11-22T12:08:29.142Z,29.08
2022-11-22T12:10:59.763Z,28.27
2022-11-22T12:13:35.275Z,29.08
2022-11-22T12:16:17.408Z,30.90
2022-11-22T12:18:51.500Z,29.70
2022-11-22T12:21:23.891Z,28.85
2022-11-22T12:24:19.567Z,28.20
2022-11-22T12:26:46.512Z,31.02
2022-11-22T12:29:16.518Z,29.70
2022-11-22T12:31:53.458Z,30.45
2022-11-22T12:34:29.358Z,29.13
2022-11-22T12:37:02.640Z,29.35
2022-11-22T12:39:30.647Z,29.90
2022-11-22T12:42:02.585Z,31.23
2022-11-22T12:44:35.784Z,30.02
2022-11-22T12:47:08.214Z,29.83
2022-11-22T12:49:41.255Z,27.92
2022-11-22T12:52:16.704Z,28.58
2022-11-22T12:54:50.260Z,29.27
2022-11-22T12:57:22.795Z,29.60
2022-11-22T12:59:58.099Z,27.73
2022-11-22T13:02:31.850Z,29.10
2022-11-22T13:05:04.548Z,29.88
2022-11-22T13:07:47.514Z,28.38
2022-11-22T13:10:22.459Z,29.55
2022-11-22T13:12:53.888Z,28.85
2022-11-22T13:15:27.905Z,31.38
2022-11-22T13:17:56.661Z,28.88
2022-11-22T13:20:28.458Z,31.05
2022-11-22T13:23:08.238Z,27.58
2022-11-22T13:25:48.966Z,29.13
2022-11-22T13:28:22.522Z,27.73
2022-11-22T13:31:15.859Z,31.48
2022-11-22T13:33:53.683Z,29.35
2022-11-22T13:36:37.707Z,25.95
2022-11-22T13:39:08.093Z,27.35
2022-11-22T13:41:39.055Z,28.90
2022-11-22T13:44:33.685Z,27.17
2022-11-22T13:47:04.385Z,32.30
2022-11-22T13:49:46.547Z,30.52
2022-11-22T13:52:45.804Z,29.33
2022-11-22T13:55:29.149Z,27.65
2022-11-22T13:58:13.181Z,29.38
2022-11-22T14:00:43.550Z,28.60
2022-11-22T14:03:36.696Z,28.88
2022-11-22T14:06:25.954Z,28.73
2022-11-22T14:09:17.690Z,28.30
2022-11-22T14:11:54.189Z,29.27
2022-11-22T14:14:33.018Z,29.85
2022-11-22T14:17:08.769Z,28.67
2022-11-22T14:19:47.483Z,27.77
2022-11-22T14:22:20.945Z,30.67
2022-11-22T14:25:14.477Z,28.77
2022-11-22T14:27:50.098Z,29.23
2022-11-22T14:30:20.851Z,29.15
2022-11-22T14:32:52.175Z,30.20
2022-11-22T14:35:29.212Z,28.30
2022-11-22T14:38:03.682Z,28.63
2022-11-22T14:40:46.565Z,27.00
2022-11-22T14:43:26.463Z,27.40
2022-11-22T14:45:56.854Z,29.85
2022-11-22T14:48:28.418Z,30.13
2022-11-22T14:51:02.207Z,28.35
2022-11-22T14:53:36.523Z,31.73
2022-11-22T14:56:08.976Z,27.83
2022-11-22T14:58:45.084Z,29.17
2022-11-22T15:01:27.269Z,28.92
2022-11-22T15:09:13.451Z,28.35
2022-11-22T15:09:21.290Z,28.10
2022-11-22T15:11:01.446Z,28.33
2022-11-22T15:13:53.585Z,27.63
2022-11-22T15:59:43.181Z,26.75
2022-11-22T16:02:14.578Z,25.53
2022-11-22T16:06:08.487Z,28.23
2022-11-22T16:07:40.218Z,26.35
2022-11-22T16:10:19.800Z,28.58
2022-11-22T16:12:48.287Z,25.45
2022-11-22T16:15:23.296Z,28.05
2022-11-22T16:17:59.209Z,31.30
2022-11-22T16:20:33.532Z,29.60
2022-11-22T16:23:19.889Z,30.30
2022-11-22T16:25:49.812Z,28.55
2022-11-22T16:28:22.954Z,27.10
2022-11-22T16:30:50.954Z,28.90
2022-11-22T16:33:20.770Z,29.98
2022-11-22T16:35:53.258Z,28.05
2022-11-22T16:38:21.846Z,30.25
2022-11-22T16:40:50.059Z,29.13
2022-11-22T16:43:21.092Z,26.83
2022-11-22T16:45:49.755Z,28.52
2022-11-22T16:48:34.821Z,30.00
2022-11-22T16:51:05.782Z,28.70
2022-11-22T16:53:41.385Z,29.35
2022-11-22T16:56:10.964Z,28.85
2022-11-22T16:58:39.270Z,29.95
2022-11-22T17:01:09.966Z,28.67
2022-11-22T17:03:40.049Z,29.48
2022-11-22T17:06:11.455Z,28.40
2022-11-22T17:08:39.517Z,30.10
2022-11-22T17:11:08.386Z,32.72
2022-11-22T17:13:36.742Z,31.90
2022-11-22T17:16:06.927Z,30.65
2022-11-22T17:18:36.394Z,31.25
2022-11-22T17:21:06.245Z,30.27
2022-11-22T17:23:40.598Z,33.35
2022-11-22T17:26:11.110Z,31.92
2022-11-22T17:28:39.374Z,32.63
2022-11-22T17:31:11.523Z,31.30
2022-11-22T17:36:19.596Z,31.30
2022-11-22T17:38:48.953Z,30.63
2022-11-22T17:41:17.467Z,32.78
2022-11-22T17:43:45.916Z,30.05
2022-11-22T17:46:15.522Z,30.85
2022-11-22T17:48:44.750Z,34.20
2022-11-22T17:51:13.782Z,32.45
2022-11-22T17:53:42.135Z,33.05
2022-11-22T17:56:12.049Z,29.95
2022-11-22T17:58:40.673Z,34.88
2022-11-22T18:01:12.168Z,32.70
2022-11-22T18:03:42.326Z,33.03
2022-11-22T18:06:12.203Z,36.67
2022-11-22T18:08:46.632Z,30.75
2022-11-22T18:11:17.565Z,32.63
2022-11-22T18:13:45.787Z,32.35
2022-11-22T18:16:15.623Z,33.78
2022-11-22T18:18:59.544Z,34.22
2022-11-22T18:21:29.633Z,36.80
2022-11-22T18:24:00.253Z,36.00
2022-11-22T18:26:45.387Z,35.70
2022-11-22T18:32:03.714Z,37.13
2022-11-22T18:34:32.629Z,36.17
2022-11-22T18:37:04.672Z,36.13
2022-11-22T18:39:37.334Z,36.47
2022-11-22T18:42:15.872Z,30.90
2022-11-22T18:44:44.188Z,34.03
2022-11-22T18:47:12.616Z,34.22
2022-11-22T18:49:41.123Z,36.58
2022-11-22T18:52:14.966Z,35.00
2022-11-22T18:54:51.802Z,34.97
2022-11-22T18:57:28.481Z,35.45
2022-11-22T18:59:56.927Z,34.30
2022-11-22T19:02:28.216Z,34.33
2022-11-22T19:04:56.763Z,35.70
2022-11-22T19:07:26.633Z,34.28
2022-11-22T19:09:59.888Z,37.42
2022-11-22T19:12:30.286Z,36.47
2022-11-22T19:14:59.384Z,36.75
2022-11-22T19:17:27.600Z,36.63
2022-11-22T19:19:59.346Z,35.90
2022-11-22T19:22:27.697Z,34.55
2022-11-22T19:24:55.769Z,36.25
2022-11-22T19:27:26.026Z,36.85
2022-11-22T19:29:55.615Z,36.90
2022-11-22T19:32:25.220Z,37.97
2022-11-22T19:34:53.344Z,34.38
2022-11-22T19:37:21.939Z,29.58
2022-11-22T19:39:51.207Z,39.15
2022-11-22T19:42:21.004Z,33.05
2022-11-22T19:44:49.633Z,37.70
2022-11-22T19:47:20.450Z,35.10
2022-11-22T19:49:48.818Z,37.95
2022-11-22T19:52:20.804Z,38.25
2022-11-22T19:54:49.098Z,35.70
2022-11-22T19:57:17.329Z,36.22
2022-11-22T19:59:45.565Z,36.92
2022-11-22T20:02:13.943Z,37.17
2022-11-22T20:04:43.785Z,37.60
2022-11-22T20:07:12.752Z,36.08
2022-11-22T20:09:40.859Z,37.13
2022-11-22T20:12:10.019Z,36.38
2022-11-22T20:14:38.085Z,36.70
2022-11-22T20:17:06.450Z,35.33
2022-11-22T20:19:35.506Z,36.97
2022-11-22T20:22:06.441Z,38.17
2022-11-22T20:24:37.160Z,36.30
2022-11-22T20:27:06.079Z,40.47
2022-11-22T20:29:34.191Z,36.85
2022-11-22T20:32:02.503Z,37.45
2022-11-22T20:34:31.035Z,35.75
2022-11-22T20:37:01.200Z,39.65
2022-11-22T20:39:33.669Z,38.10
2022-11-22T20:42:32.454Z,42.10
2022-11-22T20:44:51.569Z,39.30
2022-11-22T20:47:20.631Z,38.10
2022-11-22T20:49:50.479Z,37.88
2022-11-22T20:52:20.119Z,38.97
2022-11-22T20:54:49.453Z,40.90
2022-11-22T20:57:19.772Z,36.97
2022-11-22T20:59:48.489Z,39.42
2022-11-22T21:02:16.779Z,37.83
2022-11-22T21:04:45.135Z,39.50
2022-11-22T21:07:13.599Z,41.30
2022-11-22T21:09:42.728Z,41.50
2022-11-22T21:12:12.066Z,40.40
2022-11-22T21:14:40.068Z,39.00
2022-11-22T21:17:37.199Z,39.28
2022-11-22T21:19:56.734Z,41.55
2022-11-22T21:22:31.689Z,41.67
2022-11-22T21:25:01.252Z,41.88
2022-11-22T21:27:37.864Z,39.42
2022-11-22T21:30:11.337Z,41.78
2022-11-22T21:32:39.561Z,41.65
2022-11-22T21:35:10.792Z,43.28
2022-11-22T21:37:42.160Z,40.22
2022-11-22T21:40:12.120Z,41.50
2022-11-22T21:42:41.780Z,43.00
2022-11-22T21:45:12.035Z,41.92
2022-11-22T21:47:41.754Z,43.72
2022-11-22T21:50:12.482Z,42.63
2022-11-22T21:52:42.556Z,40.72
2022-11-22T21:55:12.049Z,42.17
2022-11-22T21:57:41.297Z,42.25
2022-11-22T22:00:11.335Z,42.00
2022-11-22T22:02:40.768Z,43.72
2022-11-22T22:05:09.496Z,38.92
2022-11-22T22:07:52.614Z,46.33
2022-11-22T22:10:22.958Z,43.67
2022-11-22T22:12:52.919Z,44.15
2022-11-22T22:15:21.691Z,42.75
2022-11-22T22:17:53.542Z,44.35
2022-11-22T22:20:21.605Z,42.35
2022-11-22T22:22:52.097Z,44.17
2022-11-22T22:25:26.300Z,44.00
2022-11-22T22:27:58.720Z,47.65
2022-11-22T22:30:27.219Z,42.92
2022-11-22T22:32:58.718Z,46.67
2022-11-22T22:35:26.855Z,47.20
2022-11-22T22:37:58.118Z,45.10
2022-11-22T22:40:27.322Z,45.05
2022-11-22T22:42:58.638Z,43.58
2022-11-22T22:45:26.610Z,43.92
2022-11-22T22:47:54.912Z,46.53
2022-11-22T22:50:23.398Z,45.28
2022-11-22T22:52:54.328Z,44.85
2022-11-22T22:55:23.141Z,47.13
2022-11-22T22:57:55.532Z,47.53
2022-11-22T23:00:25.489Z,45.15
2022-11-22T23:02:53.672Z,44.58
2022-11-22T23:05:25.189Z,48.90
2022-11-22T23:07:56.430Z,47.35
2022-11-22T23:10:26.219Z,47.93
2022-11-22T23:12:54.426Z,47.25
2022-11-22T23:15:43.804Z,47.75
2022-11-22T23:18:13.292Z,47.15
2022-11-22T23:20:41.311Z,47.95
2022-11-22T23:23:09.298Z,49.75
2022-11-22T23:25:37.307Z,48.72
2022-11-22T23:28:07.121Z,48.47
2022-11-22T23:30:36.593Z,45.35
2022-11-22T23:33:04.935Z,44.90
2022-11-22T23:35:36.689Z,48.50
2022-11-22T23:38:04.839Z,47.08
2022-11-22T23:40:32.849Z,49.88
2022-11-22T23:43:03.669Z,49.45
2022-11-22T23:45:31.646Z,46.10
2022-11-22T23:48:00.340Z,48.70
2022-11-22T23:50:31.772Z,45.17
2022-11-22T23:53:04.172Z,44.95
2022-11-22T23:55:32.752Z,49.17
2022-11-22T23:58:01.278Z,47.65
